sensor_id;sensor_type;location;lat;lon;timestamp;P1;P2;P0
72467;PMS3003;60626;43.582;1.470;2023-02-02T00:01:59;36.00;30.00;20.00
72467;PMS3003;60626;43.582;1.470;2023-02-02T00:04:28;28.25;27.50;20.50
72467;PMS3003;60626;43.582;1.470;2023-02-02T00:06:57;28.25;28.25;20.25
72467;PMS3003;60626;43.582;1.470;2023-02-02T00:09:25;28.25;28.00;21.00
72467;PMS3003;60626;43.582;1.470;2023-02-02T00:11:56;29.75;28.50;21.00
72467;PMS3003;60626;43.582;1.470;2023-02-02T00:14:24;31.50;31.00;21.00
72467;PMS3003;60626;43.582;1.470;2023-02-02T00:16:55;35.00;31.00;20.25
72467;PMS3003;60626;43.582;1.470;2023-02-02T00:19:23;33.75;28.75;20.50
72467;PMS3003;60626;43.582;1.470;2023-02-02T00:21:52;29.75;26.00;19.50
72467;PMS3003;60626;43.582;1.470;2023-02-02T00:24:20;31.75;29.25;21.00
72467;PMS3003;60626;43.582;1.470;2023-02-02T00:26:49;29.75;29.75;19.25
72467;PMS3003;60626;43.582;1.470;2023-02-02T00:29:22;29.25;29.25;21.00
72467;PMS3003;60626;43.582;1.470;2023-02-02T00:31:56;33.50;28.00;20.25
72467;PMS3003;60626;43.582;1.470;2023-02-02T00:34:23;29.75;25.25;17.00
72467;PMS3003;60626;43.582;1.470;2023-02-02T00:36:50;29.25;28.25;18.50
72467;PMS3003;60626;43.582;1.470;2023-02-02T00:39:19;30.25;29.75;20.50
72467;PMS3003;60626;43.582;1.470;2023-02-02T00:41:47;29.75;29.75;20.25
72467;PMS3003;60626;43.582;1.470;2023-02-02T00:44:14;30.75;28.50;19.25
72467;PMS3003;60626;43.582;1.470;2023-02-02T00:46:59;32.75;29.25;20.00
72467;PMS3003;60626;43.582;1.470;2023-02-02T00:49:26;37.50;30.75;20.25
72467;PMS3003;60626;43.582;1.470;2023-02-02T00:51:52;34.75;29.00;21.25
72467;PMS3003;60626;43.582;1.470;2023-02-02T00:54:19;25.75;25.50;19.25
72467;PMS3003;60626;43.582;1.470;2023-02-02T00:56:46;29.75;28.75;20.25
72467;PMS3003;60626;43.582;1.470;2023-02-02T00:59:13;30.00;30.00;21.75
72467;PMS3003;60626;43.582;1.470;2023-02-02T01:01:40;25.25;25.25;16.75
72467;PMS3003;60626;43.582;1.470;2023-02-02T01:04:06;35.75;31.50;21.00
72467;PMS3003;60626;43.582;1.470;2023-02-02T01:06:33;29.00;29.00;21.00
72467;PMS3003;60626;43.582;1.470;2023-02-02T01:09:00;35.50;30.75;19.75
72467;PMS3003;60626;43.582;1.470;2023-02-02T01:11:27;30.75;30.00;21.75
72467;PMS3003;60626;43.582;1.470;2023-02-02T01:13:56;27.00;27.00;19.00
72467;PMS3003;60626;43.582;1.470;2023-02-02T01:16:23;36.25;27.50;18.25
72467;PMS3003;60626;43.582;1.470;2023-02-02T01:18:50;36.50;32.00;22.50
72467;PMS3003;60626;43.582;1.470;2023-02-02T01:21:17;39.50;30.25;21.00
72467;PMS3003;60626;43.582;1.470;2023-02-02T01:23:44;35.50;30.25;21.00
72467;PMS3003;60626;43.582;1.470;2023-02-02T01:26:11;35.75;31.00;22.00
72467;PMS3003;60626;43.582;1.470;2023-02-02T01:28:39;37.00;29.00;20.75
72467;PMS3003;60626;43.582;1.470;2023-02-02T01:31:10;34.00;30.25;20.50
72467;PMS3003;60626;43.582;1.470;2023-02-02T01:33:39;35.75;30.75;22.50
72467;PMS3003;60626;43.582;1.470;2023-02-02T01:36:07;30.25;30.25;20.25
72467;PMS3003;60626;43.582;1.470;2023-02-02T01:38:36;32.50;27.00;19.75
72467;PMS3003;60626;43.582;1.470;2023-02-02T01:41:03;44.00;34.75;22.25
72467;PMS3003;60626;43.582;1.470;2023-02-02T01:46:16;36.50;33.00;22.25
72467;PMS3003;60626;43.582;1.470;2023-02-02T01:48:52;41.25;33.00;23.25
72467;PMS3003;60626;43.582;1.470;2023-02-02T01:51:24;37.25;32.50;22.50
72467;PMS3003;60626;43.582;1.470;2023-02-02T01:53:55;30.25;28.50;20.00
72467;PMS3003;60626;43.582;1.470;2023-02-02T01:56:29;26.50;24.25;19.25
72467;PMS3003;60626;43.582;1.470;2023-02-02T01:58:59;36.50;32.00;22.75
72467;PMS3003;60626;43.582;1.470;2023-02-02T02:01:27;33.00;31.00;21.75
72467;PMS3003;60626;43.582;1.470;2023-02-02T02:03:54;33.50;31.25;21.25
72467;PMS3003;60626;43.582;1.470;2023-02-02T02:06:21;32.75;31.00;20.75
72467;PMS3003;60626;43.582;1.470;2023-02-02T02:09:04;29.00;25.75;20.50
72467;PMS3003;60626;43.582;1.470;2023-02-02T02:11:32;36.50;32.00;20.75
72467;PMS3003;60626;43.582;1.470;2023-02-02T02:14:07;32.25;30.75;20.25
72467;PMS3003;60626;43.582;1.470;2023-02-02T02:22:49;26.00;23.75;18.00
72467;PMS3003;60626;43.582;1.470;2023-02-02T02:26:05;25.50;25.50;19.50
72467;PMS3003;60626;43.582;1.470;2023-02-02T02:43:02;30.25;23.00;17.00
72467;PMS3003;60626;43.582;1.470;2023-02-02T02:45:52;27.75;23.75;16.50
72467;PMS3003;60626;43.582;1.470;2023-02-02T02:48:19;26.50;24.75;15.25
72467;PMS3003;60626;43.582;1.470;2023-02-02T02:50:46;26.75;24.25;15.75
72467;PMS3003;60626;43.582;1.470;2023-02-02T02:53:15;24.00;21.50;16.00
72467;PMS3003;60626;43.582;1.470;2023-02-02T02:56:06;23.50;23.50;17.50
72467;PMS3003;60626;43.582;1.470;2023-02-02T03:01:30;23.00;21.25;14.25
72467;PMS3003;60626;43.582;1.470;2023-02-02T03:06:49;20.75;19.25;14.75
72467;PMS3003;60626;43.582;1.470;2023-02-02T03:09:23;18.75;16.75;12.00
72467;PMS3003;60626;43.582;1.470;2023-02-02T03:11:52;19.75;18.50;14.50
72467;PMS3003;60626;43.582;1.470;2023-02-02T03:14:21;24.50;22.75;16.75
72467;PMS3003;60626;43.582;1.470;2023-02-02T03:16:49;24.75;21.25;14.25
72467;PMS3003;60626;43.582;1.470;2023-02-02T03:19:17;25.75;22.25;14.50
72467;PMS3003;60626;43.582;1.470;2023-02-02T03:21:44;18.00;17.00;12.25
72467;PMS3003;60626;43.582;1.470;2023-02-02T03:24:10;22.00;21.00;15.00
72467;PMS3003;60626;43.582;1.470;2023-02-02T03:26:37;22.75;19.75;16.00
72467;PMS3003;60626;43.582;1.470;2023-02-02T03:29:04;20.00;20.00;15.00
72467;PMS3003;60626;43.582;1.470;2023-02-02T03:31:31;20.25;19.00;14.50
72467;PMS3003;60626;43.582;1.470;2023-02-02T03:33:58;20.25;19.25;16.00
72467;PMS3003;60626;43.582;1.470;2023-02-02T03:36:24;20.50;16.75;13.00
72467;PMS3003;60626;43.582;1.470;2023-02-02T03:38:51;23.50;16.25;12.25
72467;PMS3003;60626;43.582;1.470;2023-02-02T03:58:43;21.25;19.00;14.00
72467;PMS3003;60626;43.582;1.470;2023-02-02T04:01:12;21.25;19.00;15.25
72467;PMS3003;60626;43.582;1.470;2023-02-02T04:03:40;19.00;18.75;13.75
72467;PMS3003;60626;43.582;1.470;2023-02-02T04:06:07;20.50;20.50;15.00
72467;PMS3003;60626;43.582;1.470;2023-02-02T04:08:34;21.75;21.75;16.50
72467;PMS3003;60626;43.582;1.470;2023-02-02T04:11:00;23.50;20.25;16.00
72467;PMS3003;60626;43.582;1.470;2023-02-02T04:13:27;22.50;19.25;11.75
72467;PMS3003;60626;43.582;1.470;2023-02-02T04:15:58;21.75;19.25;16.00
72467;PMS3003;60626;43.582;1.470;2023-02-02T04:18:25;21.75;20.25;16.25
72467;PMS3003;60626;43.582;1.470;2023-02-02T04:20:57;19.25;17.50;14.75
72467;PMS3003;60626;43.582;1.470;2023-02-02T04:23:24;22.50;19.50;15.25
72467;PMS3003;60626;43.582;1.470;2023-02-02T04:25:51;20.75;18.00;14.50
72467;PMS3003;60626;43.582;1.470;2023-02-02T04:28:18;19.50;19.50;16.00
72467;PMS3003;60626;43.582;1.470;2023-02-02T04:30:45;20.50;20.50;16.00
72467;PMS3003;60626;43.582;1.470;2023-02-02T04:33:11;24.00;20.75;14.25
72467;PMS3003;60626;43.582;1.470;2023-02-02T04:35:38;17.50;14.75;12.50
72467;PMS3003;60626;43.582;1.470;2023-02-02T04:38:05;20.50;19.00;14.50
72467;PMS3003;60626;43.582;1.470;2023-02-02T04:40:31;19.75;16.75;12.50
72467;PMS3003;60626;43.582;1.470;2023-02-02T04:42:58;20.50;19.75;15.00
72467;PMS3003;60626;43.582;1.470;2023-02-02T04:45:24;19.75;17.50;12.25
72467;PMS3003;60626;43.582;1.470;2023-02-02T04:47:51;22.75;21.00;14.00
72467;PMS3003;60626;43.582;1.470;2023-02-02T04:50:18;19.50;18.25;13.75
72467;PMS3003;60626;43.582;1.470;2023-02-02T04:52:45;24.25;20.75;15.25
72467;PMS3003;60626;43.582;1.470;2023-02-02T04:55:11;23.25;21.75;16.50
72467;PMS3003;60626;43.582;1.470;2023-02-02T04:57:38;20.50;20.00;13.75
72467;PMS3003;60626;43.582;1.470;2023-02-02T05:00:05;19.00;19.00;14.00
72467;PMS3003;60626;43.582;1.470;2023-02-02T05:02:35;20.00;19.50;15.00
72467;PMS3003;60626;43.582;1.470;2023-02-02T05:05:02;21.25;19.75;14.00
72467;PMS3003;60626;43.582;1.470;2023-02-02T05:07:29;19.75;18.25;15.00
72467;PMS3003;60626;43.582;1.470;2023-02-02T05:09:56;23.25;20.25;14.75
72467;PMS3003;60626;43.582;1.470;2023-02-02T05:12:23;20.50;20.50;14.50
72467;PMS3003;60626;43.582;1.470;2023-02-02T05:14:49;16.00;16.00;9.75
72467;PMS3003;60626;43.582;1.470;2023-02-02T05:17:16;17.75;17.75;14.00
72467;PMS3003;60626;43.582;1.470;2023-02-02T05:19:43;19.25;19.25;14.00
72467;PMS3003;60626;43.582;1.470;2023-02-02T05:22:09;23.00;21.25;16.75
72467;PMS3003;60626;43.582;1.470;2023-02-02T05:24:36;20.00;20.00;16.00
72467;PMS3003;60626;43.582;1.470;2023-02-02T05:27:03;25.50;22.00;16.00
72467;PMS3003;60626;43.582;1.470;2023-02-02T05:29:29;20.25;18.75;14.00
72467;PMS3003;60626;43.582;1.470;2023-02-02T05:31:56;22.25;22.25;16.25
72467;PMS3003;60626;43.582;1.470;2023-02-02T05:34:23;21.00;18.50;13.75
72467;PMS3003;60626;43.582;1.470;2023-02-02T05:36:50;21.25;19.50;12.75
72467;PMS3003;60626;43.582;1.470;2023-02-02T05:39:16;20.50;18.75;13.75
72467;PMS3003;60626;43.582;1.470;2023-02-02T05:41:43;21.00;21.00;15.25
72467;PMS3003;60626;43.582;1.470;2023-02-02T05:44:10;23.00;19.75;14.00
72467;PMS3003;60626;43.582;1.470;2023-02-02T05:46:38;25.25;19.00;14.75
72467;PMS3003;60626;43.582;1.470;2023-02-02T05:49:05;19.25;19.25;16.00
72467;PMS3003;60626;43.582;1.470;2023-02-02T05:51:32;22.00;18.00;14.25
72467;PMS3003;60626;43.582;1.470;2023-02-02T05:54:04;17.00;17.00;12.50
72467;PMS3003;60626;43.582;1.470;2023-02-02T05:56:33;19.50;18.00;13.75
72467;PMS3003;60626;43.582;1.470;2023-02-02T05:59:00;19.50;19.00;14.00
72467;PMS3003;60626;43.582;1.470;2023-02-02T06:01:30;22.25;20.50;14.25
72467;PMS3003;60626;43.582;1.470;2023-02-02T06:03:56;18.25;18.25;14.25
72467;PMS3003;60626;43.582;1.470;2023-02-02T06:06:23;19.50;18.75;12.50
72467;PMS3003;60626;43.582;1.470;2023-02-02T06:08:50;18.50;17.50;12.25
72467;PMS3003;60626;43.582;1.470;2023-02-02T06:11:17;17.75;15.75;12.00
72467;PMS3003;60626;43.582;1.470;2023-02-02T06:13:44;18.00;18.00;12.75
72467;PMS3003;60626;43.582;1.470;2023-02-02T06:16:11;22.25;20.00;13.25
72467;PMS3003;60626;43.582;1.470;2023-02-02T06:18:38;19.00;19.00;13.50
72467;PMS3003;60626;43.582;1.470;2023-02-02T06:21:05;20.50;20.00;14.00
72467;PMS3003;60626;43.582;1.470;2023-02-02T06:23:32;19.50;18.50;13.50
72467;PMS3003;60626;43.582;1.470;2023-02-02T06:25:59;19.75;18.00;12.00
72467;PMS3003;60626;43.582;1.470;2023-02-02T06:28:31;20.25;20.00;15.00
72467;PMS3003;60626;43.582;1.470;2023-02-02T06:31:05;19.75;17.25;14.00
72467;PMS3003;60626;43.582;1.470;2023-02-02T06:33:32;19.50;19.50;14.50
72467;PMS3003;60626;43.582;1.470;2023-02-02T06:36:03;21.50;20.00;14.00
72467;PMS3003;60626;43.582;1.470;2023-02-02T06:38:31;22.25;20.50;16.50
72467;PMS3003;60626;43.582;1.470;2023-02-02T06:40:58;21.75;18.50;15.00
72467;PMS3003;60626;43.582;1.470;2023-02-02T06:43:25;24.00;18.25;13.00
72467;PMS3003;60626;43.582;1.470;2023-02-02T06:45:52;21.00;21.00;15.25
72467;PMS3003;60626;43.582;1.470;2023-02-02T06:48:19;28.25;22.75;16.75
72467;PMS3003;60626;43.582;1.470;2023-02-02T06:50:46;22.75;19.25;15.25
72467;PMS3003;60626;43.582;1.470;2023-02-02T06:53:12;20.75;18.75;15.00
72467;PMS3003;60626;43.582;1.470;2023-02-02T06:55:39;22.50;20.25;14.75
72467;PMS3003;60626;43.582;1.470;2023-02-02T06:58:05;26.75;23.00;17.25
72467;PMS3003;60626;43.582;1.470;2023-02-02T07:00:32;23.00;21.25;16.50
72467;PMS3003;60626;43.582;1.470;2023-02-02T07:03:02;22.25;19.25;15.00
72467;PMS3003;60626;43.582;1.470;2023-02-02T07:05:28;30.25;24.25;15.75
72467;PMS3003;60626;43.582;1.470;2023-02-02T07:07:56;22.25;22.25;15.75
72467;PMS3003;60626;43.582;1.470;2023-02-02T07:10:22;25.50;22.00;17.00
72467;PMS3003;60626;43.582;1.470;2023-02-02T07:13:09;22.25;20.50;15.00
72467;PMS3003;60626;43.582;1.470;2023-02-02T07:15:39;20.50;18.50;14.50
72467;PMS3003;60626;43.582;1.470;2023-02-02T07:18:06;30.75;25.00;18.75
72467;PMS3003;60626;43.582;1.470;2023-02-02T07:20:33;26.00;23.00;17.00
72467;PMS3003;60626;43.582;1.470;2023-02-02T07:23:01;30.50;25.00;18.25
72467;PMS3003;60626;43.582;1.470;2023-02-02T07:25:29;27.25;21.00;16.00
72467;PMS3003;60626;43.582;1.470;2023-02-02T07:27:56;22.25;22.25;17.00
72467;PMS3003;60626;43.582;1.470;2023-02-02T07:30:22;25.00;20.75;16.50
72467;PMS3003;60626;43.582;1.470;2023-02-02T07:32:50;26.00;22.50;16.25
72467;PMS3003;60626;43.582;1.470;2023-02-02T07:35:17;29.25;26.75;18.50
72467;PMS3003;60626;43.582;1.470;2023-02-02T07:37:44;33.00;24.00;17.25
72467;PMS3003;60626;43.582;1.470;2023-02-02T07:40:16;24.50;23.50;16.50
72467;PMS3003;60626;43.582;1.470;2023-02-02T07:42:45;23.25;20.50;16.00
72467;PMS3003;60626;43.582;1.470;2023-02-02T07:45:13;29.00;27.25;18.00
72467;PMS3003;60626;43.582;1.470;2023-02-02T07:47:56;26.25;24.00;16.00
72467;PMS3003;60626;43.582;1.470;2023-02-02T07:50:24;28.25;26.75;19.00
72467;PMS3003;60626;43.582;1.470;2023-02-02T07:52:51;29.75;28.50;20.25
72467;PMS3003;60626;43.582;1.470;2023-02-02T07:55:19;31.25;28.00;20.50
72467;PMS3003;60626;43.582;1.470;2023-02-02T07:57:46;37.75;32.75;22.75
72467;PMS3003;60626;43.582;1.470;2023-02-02T08:00:12;38.25;31.00;21.25
72467;PMS3003;60626;43.582;1.470;2023-02-02T08:02:39;33.00;29.25;20.00
72467;PMS3003;60626;43.582;1.470;2023-02-02T08:05:06;40.00;31.50;21.00
72467;PMS3003;60626;43.582;1.470;2023-02-02T08:07:33;35.25;32.25;21.00
72467;PMS3003;60626;43.582;1.470;2023-02-02T08:10:00;36.25;28.50;21.00
72467;PMS3003;60626;43.582;1.470;2023-02-02T08:12:27;34.00;31.25;21.00
72467;PMS3003;60626;43.582;1.470;2023-02-02T08:14:54;29.25;27.00;21.00
72467;PMS3003;60626;43.582;1.470;2023-02-02T08:17:20;41.00;31.25;21.00
72467;PMS3003;60626;43.582;1.470;2023-02-02T08:19:48;32.50;29.25;21.00
72467;PMS3003;60626;43.582;1.470;2023-02-02T08:22:15;29.00;26.75;19.75
72467;PMS3003;60626;43.582;1.470;2023-02-02T08:24:45;28.25;26.25;20.00
72467;PMS3003;60626;43.582;1.470;2023-02-02T08:27:11;34.25;25.25;21.00
72467;PMS3003;60626;43.582;1.470;2023-02-02T08:29:38;36.00;30.25;21.25
72467;PMS3003;60626;43.582;1.470;2023-02-02T08:32:05;34.00;29.00;20.75
72467;PMS3003;60626;43.582;1.470;2023-02-02T08:34:31;25.50;25.50;17.50
72467;PMS3003;60626;43.582;1.470;2023-02-02T08:37:02;32.25;28.75;18.75
72467;PMS3003;60626;43.582;1.470;2023-02-02T08:39:29;42.75;35.50;24.00
72467;PMS3003;60626;43.582;1.470;2023-02-02T08:41:55;36.50;31.25;22.75
72467;PMS3003;60626;43.582;1.470;2023-02-02T08:44:22;25.00;23.00;14.50
72467;PMS3003;60626;43.582;1.470;2023-02-02T08:46:52;34.00;27.50;19.25
72467;PMS3003;60626;43.582;1.470;2023-02-02T08:49:19;32.50;28.00;21.00
72467;PMS3003;60626;43.582;1.470;2023-02-02T08:51:46;34.50;31.00;22.25
72467;PMS3003;60626;43.582;1.470;2023-02-02T08:54:12;30.50;29.25;21.00
72467;PMS3003;60626;43.582;1.470;2023-02-02T08:56:39;30.75;29.25;21.25
72467;PMS3003;60626;43.582;1.470;2023-02-02T08:59:06;29.75;25.50;19.25
72467;PMS3003;60626;43.582;1.470;2023-02-02T09:01:33;28.50;28.50;19.00
72467;PMS3003;60626;43.582;1.470;2023-02-02T09:04:04;35.25;32.50;22.25
72467;PMS3003;60626;43.582;1.470;2023-02-02T09:06:34;31.50;30.25;20.00
72467;PMS3003;60626;43.582;1.470;2023-02-02T09:09:07;34.25;29.75;20.75
72467;PMS3003;60626;43.582;1.470;2023-02-02T09:11:36;33.00;31.50;22.00
72467;PMS3003;60626;43.582;1.470;2023-02-02T09:14:04;30.25;28.75;20.25
72467;PMS3003;60626;43.582;1.470;2023-02-02T09:16:32;30.25;29.75;20.25
72467;PMS3003;60626;43.582;1.470;2023-02-02T09:19:00;34.25;32.00;22.00
72467;PMS3003;60626;43.582;1.470;2023-02-02T09:21:27;34.75;30.50;22.00
72467;PMS3003;60626;43.582;1.470;2023-02-02T09:23:54;32.50;31.00;21.25
72467;PMS3003;60626;43.582;1.470;2023-02-02T09:26:22;33.50;27.00;20.50
72467;PMS3003;60626;43.582;1.470;2023-02-02T09:28:54;37.00;33.00;22.75
72467;PMS3003;60626;43.582;1.470;2023-02-02T09:31:23;35.25;31.25;22.00
72467;PMS3003;60626;43.582;1.470;2023-02-02T09:33:51;31.75;28.25;21.25
72467;PMS3003;60626;43.582;1.470;2023-02-02T09:36:18;33.25;29.50;21.75
72467;PMS3003;60626;43.582;1.470;2023-02-02T09:38:47;35.00;31.50;22.50
72467;PMS3003;60626;43.582;1.470;2023-02-02T09:49:09;30.75;30.00;21.25
72467;PMS3003;60626;43.582;1.470;2023-02-02T09:51:42;36.50;32.00;21.00
72467;PMS3003;60626;43.582;1.470;2023-02-02T09:54:18;29.75;25.50;19.75
72467;PMS3003;60626;43.582;1.470;2023-02-02T09:56:48;28.75;26.50;19.75
72467;PMS3003;60626;43.582;1.470;2023-02-02T09:59:31;29.50;26.50;20.25
72467;PMS3003;60626;43.582;1.470;2023-02-02T10:02:23;29.50;27.50;21.00
72467;PMS3003;60626;43.582;1.470;2023-02-02T10:05:11;32.00;26.75;17.75
72467;PMS3003;60626;43.582;1.470;2023-02-02T10:07:43;20.75;17.00;13.00
72467;PMS3003;60626;43.582;1.470;2023-02-02T10:13:05;18.00;11.75;9.50
72467;PMS3003;60626;43.582;1.470;2023-02-02T10:15:47;16.75;13.25;11.50
72467;PMS3003;60626;43.582;1.470;2023-02-02T10:18:42;14.25;14.25;10.50
72467;PMS3003;60626;43.582;1.470;2023-02-02T10:23:46;11.75;10.25;8.50
72467;PMS3003;60626;43.582;1.470;2023-02-02T10:34:18;14.00;14.00;9.25
72467;PMS3003;60626;43.582;1.470;2023-02-02T10:40:04;7.50;7.50;5.75
72467;PMS3003;60626;43.582;1.470;2023-02-02T10:42:57;9.25;8.00;7.00
72467;PMS3003;60626;43.582;1.470;2023-02-02T10:46:01;8.25;8.00;5.00
72467;PMS3003;60626;43.582;1.470;2023-02-02T10:48:33;9.75;8.25;6.00
72467;PMS3003;60626;43.582;1.470;2023-02-02T10:51:05;11.00;9.25;6.25
72467;PMS3003;60626;43.582;1.470;2023-02-02T10:53:39;6.75;6.75;5.00
72467;PMS3003;60626;43.582;1.470;2023-02-02T10:56:10;7.75;6.75;5.00
72467;PMS3003;60626;43.582;1.470;2023-02-02T10:58:59;4.75;4.25;3.00
72467;PMS3003;60626;43.582;1.470;2023-02-02T11:01:32;8.75;5.75;4.00
72467;PMS3003;60626;43.582;1.470;2023-02-02T11:03:58;11.50;7.00;5.00
72467;PMS3003;60626;43.582;1.470;2023-02-02T11:06:43;7.75;6.25;5.00
72467;PMS3003;60626;43.582;1.470;2023-02-02T11:09:20;6.75;6.25;5.00
72467;PMS3003;60626;43.582;1.470;2023-02-02T11:12:03;7.25;6.00;5.00
72467;PMS3003;60626;43.582;1.470;2023-02-02T11:17:31;6.75;4.25;3.00
72467;PMS3003;60626;43.582;1.470;2023-02-02T11:19:59;6.50;6.00;4.00
72467;PMS3003;60626;43.582;1.470;2023-02-02T11:22:30;9.50;6.75;4.25
72467;PMS3003;60626;43.582;1.470;2023-02-02T11:25:00;8.25;6.25;5.00
72467;PMS3003;60626;43.582;1.470;2023-02-02T11:30:11;5.75;4.25;3.25
72467;PMS3003;60626;43.582;1.470;2023-02-02T11:32:52;5.50;4.00;3.00
72467;PMS3003;60626;43.582;1.470;2023-02-02T11:37:55;6.00;4.75;3.50
72467;PMS3003;60626;43.582;1.470;2023-02-02T11:42:54;6.75;5.25;4.00
72467;PMS3003;60626;43.582;1.470;2023-02-02T11:45:31;7.00;4.25;3.00
72467;PMS3003;60626;43.582;1.470;2023-02-02T11:48:06;3.00;3.00;2.25
72467;PMS3003;60626;43.582;1.470;2023-02-02T11:50:55;4.00;4.00;3.00
72467;PMS3003;60626;43.582;1.470;2023-02-02T11:55:53;6.50;3.50;3.00
72467;PMS3003;60626;43.582;1.470;2023-02-02T11:58:25;7.00;4.00;3.00
72467;PMS3003;60626;43.582;1.470;2023-02-02T12:00:55;8.25;2.00;2.00
72467;PMS3003;60626;43.582;1.470;2023-02-02T12:05:55;7.50;4.50;3.75
72467;PMS3003;60626;43.582;1.470;2023-02-02T12:08:22;7.00;4.25;3.00
72467;PMS3003;60626;43.582;1.470;2023-02-02T12:11:07;5.50;4.25;4.00
72467;PMS3003;60626;43.582;1.470;2023-02-02T12:23:06;3.00;3.00;2.00
72467;PMS3003;60626;43.582;1.470;2023-02-02T12:31:13;2.50;2.50;1.50
72467;PMS3003;60626;43.582;1.470;2023-02-02T12:34:05;6.00;3.75;2.75
72467;PMS3003;60626;43.582;1.470;2023-02-02T12:36:47;6.25;3.00;2.00
72467;PMS3003;60626;43.582;1.470;2023-02-02T12:55:56;3.50;2.75;2.00
72467;PMS3003;60626;43.582;1.470;2023-02-02T13:10:23;7.50;2.75;1.75
72467;PMS3003;60626;43.582;1.470;2023-02-02T13:13:00;7.00;3.00;2.50
72467;PMS3003;60626;43.582;1.470;2023-02-02T13:15:41;3.50;3.50;3.00
72467;PMS3003;60626;43.582;1.470;2023-02-02T13:18:22;6.00;3.50;2.00
72467;PMS3003;60626;43.582;1.470;2023-02-02T13:20:54;1.00;0.75;0.75
72467;PMS3003;60626;43.582;1.470;2023-02-02T13:23:31;8.00;3.00;2.00
72467;PMS3003;60626;43.582;1.470;2023-02-02T13:28:50;3.00;3.00;1.75
72467;PMS3003;60626;43.582;1.470;2023-02-02T13:40:02;7.75;4.50;3.00
72467;PMS3003;60626;43.582;1.470;2023-02-02T13:45:18;4.75;2.00;1.25
72467;PMS3003;60626;43.582;1.470;2023-02-02T13:48:22;8.00;5.25;4.00
72467;PMS3003;60626;43.582;1.470;2023-02-02T13:54:08;4.75;3.00;2.75
72467;PMS3003;60626;43.582;1.470;2023-02-02T13:56:56;13.25;6.50;3.75
72467;PMS3003;60626;43.582;1.470;2023-02-02T14:05:02;4.50;3.75;3.00
72467;PMS3003;60626;43.582;1.470;2023-02-02T14:10:55;8.75;5.25;3.50
72467;PMS3003;60626;43.582;1.470;2023-02-02T14:15:58;6.00;4.00;2.50
72467;PMS3003;60626;43.582;1.470;2023-02-02T14:18:50;5.75;4.00;3.00
72467;PMS3003;60626;43.582;1.470;2023-02-02T14:24:00;3.75;3.25;2.50
72467;PMS3003;60626;43.582;1.470;2023-02-02T14:26:44;7.75;6.00;3.50
72467;PMS3003;60626;43.582;1.470;2023-02-02T14:34:38;4.00;4.00;3.25
72467;PMS3003;60626;43.582;1.470;2023-02-02T14:55:30;9.50;6.25;4.75
72467;PMS3003;60626;43.582;1.470;2023-02-02T14:57:58;4.50;4.50;3.25
72467;PMS3003;60626;43.582;1.470;2023-02-02T15:00:30;8.75;5.50;3.25
72467;PMS3003;60626;43.582;1.470;2023-02-02T15:06:12;8.00;5.50;4.00
72467;PMS3003;60626;43.582;1.470;2023-02-02T15:20:11;6.50;3.25;2.25
72467;PMS3003;60626;43.582;1.470;2023-02-02T15:25:20;6.50;3.75;3.25
72467;PMS3003;60626;43.582;1.470;2023-02-02T15:27:59;7.00;4.00;3.75
72467;PMS3003;60626;43.582;1.470;2023-02-02T15:30:27;7.00;4.75;3.25
72467;PMS3003;60626;43.582;1.470;2023-02-02T15:32:56;4.00;4.00;2.75
72467;PMS3003;60626;43.582;1.470;2023-02-02T15:35:24;4.00;3.75;2.75
72467;PMS3003;60626;43.582;1.470;2023-02-02T15:37:59;6.75;5.75;4.00
72467;PMS3003;60626;43.582;1.470;2023-02-02T15:40:28;8.00;7.25;4.00
72467;PMS3003;60626;43.582;1.470;2023-02-02T15:42:58;8.50;4.00;3.75
72467;PMS3003;60626;43.582;1.470;2023-02-02T15:48:08;8.50;5.00;3.50
72467;PMS3003;60626;43.582;1.470;2023-02-02T15:50:47;6.50;6.50;3.50
72467;PMS3003;60626;43.582;1.470;2023-02-02T15:53:21;4.00;4.00;2.75
72467;PMS3003;60626;43.582;1.470;2023-02-02T15:55:53;6.75;4.50;3.00
72467;PMS3003;60626;43.582;1.470;2023-02-02T15:58:21;5.25;4.00;2.25
72467;PMS3003;60626;43.582;1.470;2023-02-02T16:03:29;5.50;4.00;3.25
72467;PMS3003;60626;43.582;1.470;2023-02-02T16:06:17;6.50;2.75;2.50
72467;PMS3003;60626;43.582;1.470;2023-02-02T16:08:44;4.75;4.00;3.00
72467;PMS3003;60626;43.582;1.470;2023-02-02T16:11:19;3.00;3.00;2.75
72467;PMS3003;60626;43.582;1.470;2023-02-02T16:13:58;4.00;4.00;2.75
72467;PMS3003;60626;43.582;1.470;2023-02-02T16:16:32;8.00;3.00;2.25
72467;PMS3003;60626;43.582;1.470;2023-02-02T16:21:43;4.00;4.00;3.25
72467;PMS3003;60626;43.582;1.470;2023-02-02T16:24:14;3.50;3.50;2.75
72467;PMS3003;60626;43.582;1.470;2023-02-02T16:26:45;10.00;6.25;4.00
72467;PMS3003;60626;43.582;1.470;2023-02-02T16:29:13;7.50;3.75;2.75
72467;PMS3003;60626;43.582;1.470;2023-02-02T16:31:43;2.00;2.00;1.75
72467;PMS3003;60626;43.582;1.470;2023-02-02T16:34:15;3.75;3.75;2.75
72467;PMS3003;60626;43.582;1.470;2023-02-02T16:36:43;3.25;3.25;2.00
72467;PMS3003;60626;43.582;1.470;2023-02-02T16:39:29;5.25;2.75;2.50
72467;PMS3003;60626;43.582;1.470;2023-02-02T16:42:06;8.50;2.75;2.50
72467;PMS3003;60626;43.582;1.470;2023-02-02T16:44:41;3.25;3.25;2.00
72467;PMS3003;60626;43.582;1.470;2023-02-02T16:49:51;6.50;4.00;3.00
72467;PMS3003;60626;43.582;1.470;2023-02-02T16:52:20;8.50;5.00;3.50
72467;PMS3003;60626;43.582;1.470;2023-02-02T16:54:51;6.75;3.25;2.50
72467;PMS3003;60626;43.582;1.470;2023-02-02T16:57:21;7.00;3.75;2.25
72467;PMS3003;60626;43.582;1.470;2023-02-02T16:59:52;6.00;4.25;3.25
72467;PMS3003;60626;43.582;1.470;2023-02-02T17:02:34;6.75;5.00;3.00
72467;PMS3003;60626;43.582;1.470;2023-02-02T17:05:14;7.75;4.25;3.25
72467;PMS3003;60626;43.582;1.470;2023-02-02T17:07:45;9.00;4.25;3.25
72467;PMS3003;60626;43.582;1.470;2023-02-02T17:12:42;8.75;5.75;5.00
72467;PMS3003;60626;43.582;1.470;2023-02-02T17:17:46;9.00;8.25;6.00
72467;PMS3003;60626;43.582;1.470;2023-02-02T17:20:17;7.50;5.50;3.75
72467;PMS3003;60626;43.582;1.470;2023-02-02T17:22:52;8.75;6.25;5.00
72467;PMS3003;60626;43.582;1.470;2023-02-02T17:25:25;7.50;7.50;4.25
72467;PMS3003;60626;43.582;1.470;2023-02-02T17:27:55;11.25;9.75;6.75
72467;PMS3003;60626;43.582;1.470;2023-02-02T17:30:23;11.50;9.50;7.50
72467;PMS3003;60626;43.582;1.470;2023-02-02T17:32:51;17.00;13.00;8.50
72467;PMS3003;60626;43.582;1.470;2023-02-02T17:35:18;14.00;12.75;9.75
72467;PMS3003;60626;43.582;1.470;2023-02-02T17:37:47;20.00;13.00;9.50
72467;PMS3003;60626;43.582;1.470;2023-02-02T17:40:15;15.00;12.50;9.00
72467;PMS3003;60626;43.582;1.470;2023-02-02T17:42:42;15.00;13.50;10.75
72467;PMS3003;60626;43.582;1.470;2023-02-02T17:45:13;11.50;10.50;8.25
72467;PMS3003;60626;43.582;1.470;2023-02-02T17:47:50;13.50;11.75;8.75
72467;PMS3003;60626;43.582;1.470;2023-02-02T17:50:16;13.75;12.25;9.50
72467;PMS3003;60626;43.582;1.470;2023-02-02T17:52:43;13.75;10.50;8.75
72467;PMS3003;60626;43.582;1.470;2023-02-02T17:55:24;12.75;10.75;7.75